sensor_id;sensor_type;location;lat;lon;timestamp;temperature;humidity
13470;DHT22;6807;48.682;9.032;2022-12-29T01:18:21;8.80;99.90
13470;DHT22;6807;48.682;9.032;2022-12-29T01:57:53;9.20;99.90
13470;DHT22;6807;48.682;9.032;2022-12-29T03:04:59;9.90;99.90
13470;DHT22;6807;48.682;9.032;2022-12-29T03:25:52;10.30;99.90
13470;DHT22;6807;48.682;9.032;2022-12-29T07:39:51;9.40;99.90
13470;DHT22;6807;48.682;9.032;2022-12-29T09:06:17;10.10;65.20
13470;DHT22;6807;48.682;9.032;2022-12-29T09:43:43;12.10;99.90
13470;DHT22;6807;48.682;9.032;2022-12-29T09:51:21;12.20;99.90
13470;DHT22;6807;48.682;9.032;2022-12-29T09:53:53;12.20;99.90
13470;DHT22;6807;48.682;9.032;2022-12-29T09:56:25;11.60;97.10
13470;DHT22;6807;48.682;9.032;2022-12-29T09:58:57;12.30;99.90
13470;DHT22;6807;48.682;9.032;2022-12-29T10:01:30;12.40;99.90
13470;DHT22;6807;48.682;9.032;2022-12-29T10:04:02;12.20;99.90
13470;DHT22;6807;48.682;9.032;2022-12-29T10:06:36;12.10;99.90
13470;DHT22;6807;48.682;9.032;2022-12-29T10:09:11;12.00;99.90
13470;DHT22;6807;48.682;9.032;2022-12-29T10:11:58;11.90;99.90
13470;DHT22;6807;48.682;9.032;2022-12-29T10:14:40;11.90;99.90
13470;DHT22;6807;48.682;9.032;2022-12-29T10:17:24;12.10;99.90
13470;DHT22;6807;48.682;9.032;2022-12-29T10:20:11;12.30;99.90
13470;DHT22;6807;48.682;9.032;2022-12-29T10:22:53;12.30;99.90
13470;DHT22;6807;48.682;9.032;2022-12-29T10:25:26;12.40;99.90
13470;DHT22;6807;48.682;9.032;2022-12-29T10:27:57;12.40;99.90
13470;DHT22;6807;48.682;9.032;2022-12-29T10:30:27;12.30;99.90
13470;DHT22;6807;48.682;9.032;2022-12-29T10:33:01;12.40;99.90
13470;DHT22;6807;48.682;9.032;2022-12-29T10:39:02;12.80;99.90
13470;DHT22;6807;48.682;9.032;2022-12-29T10:41:39;13.00;99.90
13470;DHT22;6807;48.682;9.032;2022-12-29T10:44:11;13.10;99.90
13470;DHT22;6807;48.682;9.032;2022-12-29T10:46:40;12.90;99.90
13470;DHT22;6807;48.682;9.032;2022-12-29T10:49:14;13.00;99.90
13470;DHT22;6807;48.682;9.032;2022-12-29T10:51:47;12.60;99.90
13470;DHT22;6807;48.682;9.032;2022-12-29T10:54:29;12.40;99.90
13470;DHT22;6807;48.682;9.032;2022-12-29T10:57:01;12.60;99.90
13470;DHT22;6807;48.682;9.032;2022-12-29T10:59:36;12.30;99.90
13470;DHT22;6807;48.682;9.032;2022-12-29T11:02:20;12.30;99.90
13470;DHT22;6807;48.682;9.032;2022-12-29T11:04:56;12.40;99.90
13470;DHT22;6807;48.682;9.032;2022-12-29T11:07:27;12.30;99.90
13470;DHT22;6807;48.682;9.032;2022-12-29T11:10:16;12.40;99.90
13470;DHT22;6807;48.682;9.032;2022-12-29T11:12:55;12.10;94.30
13470;DHT22;6807;48.682;9.032;2022-12-29T11:15:23;12.20;95.70
13470;DHT22;6807;48.682;9.032;2022-12-29T11:17:51;12.60;86.40
13470;DHT22;6807;48.682;9.032;2022-12-29T11:20:34;12.60;99.90
13470;DHT22;6807;48.682;9.032;2022-12-29T11:23:04;12.00;73.20
13470;DHT22;6807;48.682;9.032;2022-12-29T11:25:32;12.00;99.90
13470;DHT22;6807;48.682;9.032;2022-12-29T11:28:03;13.20;66.80
13470;DHT22;6807;48.682;9.032;2022-12-29T11:35:36;12.10;17.20
13470;DHT22;6807;48.682;9.032;2022-12-29T11:38:12;12.40;14.60
13470;DHT22;6807;48.682;9.032;2022-12-29T11:43:19;13.00;84.60
13470;DHT22;6807;48.682;9.032;2022-12-29T11:48:18;12.30;16.20
13470;DHT22;6807;48.682;9.032;2022-12-29T11:50:52;11.90;39.50
13470;DHT22;6807;48.682;9.032;2022-12-29T11:53:22;11.60;47.60
13470;DHT22;6807;48.682;9.032;2022-12-29T11:55:53;11.50;68.50
13470;DHT22;6807;48.682;9.032;2022-12-29T12:01:02;11.30;40.60
13470;DHT22;6807;48.682;9.032;2022-12-29T12:03:32;11.30;76.10
13470;DHT22;6807;48.682;9.032;2022-12-29T12:06:03;11.40;73.00
13470;DHT22;6807;48.682;9.032;2022-12-29T12:11:06;11.20;1.00
13470;DHT22;6807;48.682;9.032;2022-12-29T12:13:47;11.10;1.00
13470;DHT22;6807;48.682;9.032;2022-12-29T12:16:26;11.20;1.00
13470;DHT22;6807;48.682;9.032;2022-12-29T12:18:58;11.20;99.90
13470;DHT22;6807;48.682;9.032;2022-12-29T12:21:34;11.20;8.30
13470;DHT22;6807;48.682;9.032;2022-12-29T12:24:15;11.10;4.50
13470;DHT22;6807;48.682;9.032;2022-12-29T12:26:58;11.20;1.00
13470;DHT22;6807;48.682;9.032;2022-12-29T12:29:36;11.00;1.00
13470;DHT22;6807;48.682;9.032;2022-12-29T12:32:12;10.70;1.00
13470;DHT22;6807;48.682;9.032;2022-12-29T12:34:44;10.60;1.00
13470;DHT22;6807;48.682;9.032;2022-12-29T12:39:55;10.50;1.00
13470;DHT22;6807;48.682;9.032;2022-12-29T12:42:42;9.20;1.00
13470;DHT22;6807;48.682;9.032;2022-12-29T12:45:30;10.60;1.00
13470;DHT22;6807;48.682;9.032;2022-12-29T12:48:11;10.80;1.00
13470;DHT22;6807;48.682;9.032;2022-12-29T12:50:52;11.10;1.00
13470;DHT22;6807;48.682;9.032;2022-12-29T12:53:33;11.50;1.00
13470;DHT22;6807;48.682;9.032;2022-12-29T12:56:29;12.20;1.00
13470;DHT22;6807;48.682;9.032;2022-12-29T12:59:10;12.80;1.00
13470;DHT22;6807;48.682;9.032;2022-12-29T13:01:45;13.60;1.00
13470;DHT22;6807;48.682;9.032;2022-12-29T13:04:39;13.30;1.00
13470;DHT22;6807;48.682;9.032;2022-12-29T13:07:23;12.70;1.00
13470;DHT22;6807;48.682;9.032;2022-12-29T13:12:51;12.00;1.00
13470;DHT22;6807;48.682;9.032;2022-12-29T13:15:36;12.00;1.00
13470;DHT22;6807;48.682;9.032;2022-12-29T13:18:14;12.00;1.00
13470;DHT22;6807;48.682;9.032;2022-12-29T13:20:49;11.90;1.00
13470;DHT22;6807;48.682;9.032;2022-12-29T13:23:24;15.30;1.00
13470;DHT22;6807;48.682;9.032;2022-12-29T13:26:02;11.40;1.00
13470;DHT22;6807;48.682;9.032;2022-12-29T13:28:37;11.40;1.00
13470;DHT22;6807;48.682;9.032;2022-12-29T13:31:19;11.10;1.00
13470;DHT22;6807;48.682;9.032;2022-12-29T13:33:53;11.10;30.30
13470;DHT22;6807;48.682;9.032;2022-12-29T13:39:01;11.10;1.00
13470;DHT22;6807;48.682;9.032;2022-12-29T13:41:37;11.00;1.00
13470;DHT22;6807;48.682;9.032;2022-12-29T13:44:09;11.10;1.00
13470;DHT22;6807;48.682;9.032;2022-12-29T13:49:17;11.10;1.00
13470;DHT22;6807;48.682;9.032;2022-12-29T13:51:51;11.00;1.00
13470;DHT22;6807;48.682;9.032;2022-12-29T13:54:27;10.90;1.00
13470;DHT22;6807;48.682;9.032;2022-12-29T13:57:02;11.00;1.00
13470;DHT22;6807;48.682;9.032;2022-12-29T13:59:39;11.20;1.00
13470;DHT22;6807;48.682;9.032;2022-12-29T14:02:17;11.30;1.00
13470;DHT22;6807;48.682;9.032;2022-12-29T14:05:00;11.00;99.90
13470;DHT22;6807;48.682;9.032;2022-12-29T14:09:59;11.10;1.00
13470;DHT22;6807;48.682;9.032;2022-12-29T14:12:32;11.00;1.00
13470;DHT22;6807;48.682;9.032;2022-12-29T14:15:21;10.90;99.90
13470;DHT22;6807;48.682;9.032;2022-12-29T14:18:22;10.70;1.00
13470;DHT22;6807;48.682;9.032;2022-12-29T14:20:54;10.70;1.00
13470;DHT22;6807;48.682;9.032;2022-12-29T14:23:39;10.90;1.00
13470;DHT22;6807;48.682;9.032;2022-12-29T14:31:35;10.90;1.00
13470;DHT22;6807;48.682;9.032;2022-12-29T14:34:28;10.90;1.00
13470;DHT22;6807;48.682;9.032;2022-12-29T14:37:02;10.80;1.00
13470;DHT22;6807;48.682;9.032;2022-12-29T14:42:12;10.70;1.00
13470;DHT22;6807;48.682;9.032;2022-12-29T14:44:47;10.70;1.00
13470;DHT22;6807;48.682;9.032;2022-12-29T14:47:26;10.70;1.00
13470;DHT22;6807;48.682;9.032;2022-12-29T14:52:25;10.50;1.00
13470;DHT22;6807;48.682;9.032;2022-12-29T15:00:00;10.40;1.00
13470;DHT22;6807;48.682;9.032;2022-12-29T15:02:38;10.30;99.90
13470;DHT22;6807;48.682;9.032;2022-12-29T15:05:23;10.30;1.00
13470;DHT22;6807;48.682;9.032;2022-12-29T15:07:52;10.40;1.00
13470;DHT22;6807;48.682;9.032;2022-12-29T15:15:21;10.20;1.00
13470;DHT22;6807;48.682;9.032;2022-12-29T15:20:23;10.20;1.00
13470;DHT22;6807;48.682;9.032;2022-12-29T15:22:56;10.10;1.00
13470;DHT22;6807;48.682;9.032;2022-12-29T15:25:24;10.20;1.00
13470;DHT22;6807;48.682;9.032;2022-12-29T15:27:53;10.30;1.00
13470;DHT22;6807;48.682;9.032;2022-12-29T15:32:49;10.30;1.00
13470;DHT22;6807;48.682;9.032;2022-12-29T15:40:26;10.30;1.00
13470;DHT22;6807;48.682;9.032;2022-12-29T15:53:27;10.10;1.00
13470;DHT22;6807;48.682;9.032;2022-12-29T15:55:56;10.20;1.00
13470;DHT22;6807;48.682;9.032;2022-12-29T15:58:27;10.20;1.00
13470;DHT22;6807;48.682;9.032;2022-12-29T16:00:57;10.20;1.00
13470;DHT22;6807;48.682;9.032;2022-12-29T16:05:54;10.20;1.00
13470;DHT22;6807;48.682;9.032;2022-12-29T16:08:28;10.20;1.00
13470;DHT22;6807;48.682;9.032;2022-12-29T16:13:29;9.60;1.00
13470;DHT22;6807;48.682;9.032;2022-12-29T16:16:00;9.30;1.00
13470;DHT22;6807;48.682;9.032;2022-12-29T16:18:34;9.20;1.00
13470;DHT22;6807;48.682;9.032;2022-12-29T16:28:35;8.60;1.00
13470;DHT22;6807;48.682;9.032;2022-12-29T16:31:04;8.50;1.00
13470;DHT22;6807;48.682;9.032;2022-12-29T16:33:47;8.50;21.30
13470;DHT22;6807;48.682;9.032;2022-12-29T16:36:26;8.40;98.30
13470;DHT22;6807;48.682;9.032;2022-12-29T16:39:35;8.40;99.90
13470;DHT22;6807;48.682;9.032;2022-12-29T16:53:34;8.20;99.90
13470;DHT22;6807;48.682;9.032;2022-12-29T16:56:08;8.10;99.90
13470;DHT22;6807;48.682;9.032;2022-12-29T17:03:44;8.00;99.90
13470;DHT22;6807;48.682;9.032;2022-12-29T17:14:21;7.50;99.90
13470;DHT22;6807;48.682;9.032;2022-12-29T17:19:23;7.30;99.90
13470;DHT22;6807;48.682;9.032;2022-12-29T17:26:52;7.40;99.90
13470;DHT22;6807;48.682;9.032;2022-12-29T17:44:18;7.50;1.00
13470;DHT22;6807;48.682;9.032;2022-12-29T18:33:49;7.80;19.60
13470;DHT22;6807;48.682;9.032;2022-12-29T18:41:16;7.80;27.70
